sensor_id;sensor_type;location;lat;lon;timestamp;temperature;humidity
25360;DHT22;13311;51.386;0.016;2022-10-16T00:04:42;15.70;92.90
25360;DHT22;13311;51.386;0.016;2022-10-16T00:09:43;15.70;92.90
25360;DHT22;13311;51.386;0.016;2022-10-16T00:14:44;15.60;93.30
25360;DHT22;13311;51.386;0.016;2022-10-16T00:19:44;15.60;93.20
25360;DHT22;13311;51.386;0.016;2022-10-16T00:24:45;15.60;93.10
25360;DHT22;13311;51.386;0.016;2022-10-16T00:29:50;15.70;93.10
25360;DHT22;13311;51.386;0.016;2022-10-16T00:34:51;15.80;93.10
25360;DHT22;13311;51.386;0.016;2022-10-16T00:39:54;15.80;93.00
25360;DHT22;13311;51.386;0.016;2022-10-16T00:44:57;15.80;92.90
25360;DHT22;13311;51.386;0.016;2022-10-16T00:50:09;15.70;93.00
25360;DHT22;13311;51.386;0.016;2022-10-16T00:55:14;15.70;93.00
25360;DHT22;13311;51.386;0.016;2022-10-16T01:00:20;15.70;93.10
25360;DHT22;13311;51.386;0.016;2022-10-16T01:05:46;15.50;93.20
25360;DHT22;13311;51.386;0.016;2022-10-16T01:10:57;15.60;93.00
25360;DHT22;13311;51.386;0.016;2022-10-16T01:16:10;15.60;93.30
25360;DHT22;13311;51.386;0.016;2022-10-16T01:21:23;15.50;93.40
25360;DHT22;13311;51.386;0.016;2022-10-16T01:32:36;15.50;93.50
25360;DHT22;13311;51.386;0.016;2022-10-16T01:37:45;15.40;93.80
25360;DHT22;13311;51.386;0.016;2022-10-16T01:42:53;15.30;93.90
25360;DHT22;13311;51.386;0.016;2022-10-16T01:48:00;15.30;94.10
25360;DHT22;13311;51.386;0.016;2022-10-16T01:53:05;15.20;94.60
25360;DHT22;13311;51.386;0.016;2022-10-16T01:58:08;15.20;95.00
25360;DHT22;13311;51.386;0.016;2022-10-16T02:03:12;15.20;95.30
25360;DHT22;13311;51.386;0.016;2022-10-16T02:08:15;15.10;95.60
25360;DHT22;13311;51.386;0.016;2022-10-16T02:13:21;15.20;95.60
25360;DHT22;13311;51.386;0.016;2022-10-16T02:18:25;15.20;96.30
25360;DHT22;13311;51.386;0.016;2022-10-16T02:29:07;15.20;95.90
25360;DHT22;13311;51.386;0.016;2022-10-16T02:34:10;15.30;95.10
25360;DHT22;13311;51.386;0.016;2022-10-16T02:39:13;15.40;94.40
25360;DHT22;13311;51.386;0.016;2022-10-16T02:44:15;15.50;94.00
25360;DHT22;13311;51.386;0.016;2022-10-16T02:49:16;15.50;93.90
25360;DHT22;13311;51.386;0.016;2022-10-16T02:54:18;15.40;94.00
25360;DHT22;13311;51.386;0.016;2022-10-16T02:59:19;15.30;94.10
25360;DHT22;13311;51.386;0.016;2022-10-16T03:04:19;15.30;93.80
25360;DHT22;13311;51.386;0.016;2022-10-16T03:09:20;15.20;93.90
25360;DHT22;13311;51.386;0.016;2022-10-16T03:14:21;15.20;93.70
25360;DHT22;13311;51.386;0.016;2022-10-16T03:19:22;15.10;93.60
25360;DHT22;13311;51.386;0.016;2022-10-16T03:24:22;15.10;93.60
25360;DHT22;13311;51.386;0.016;2022-10-16T03:29:23;15.00;93.50
25360;DHT22;13311;51.386;0.016;2022-10-16T03:34:26;15.00;93.40
25360;DHT22;13311;51.386;0.016;2022-10-16T03:39:26;15.00;93.40
25360;DHT22;13311;51.386;0.016;2022-10-16T03:44:27;14.90;93.40
25360;DHT22;13311;51.386;0.016;2022-10-16T03:49:28;14.90;93.30
25360;DHT22;13311;51.386;0.016;2022-10-16T03:54:29;14.90;93.30
25360;DHT22;13311;51.386;0.016;2022-10-16T03:59:29;14.80;93.30
25360;DHT22;13311;51.386;0.016;2022-10-16T04:04:30;14.80;93.40
25360;DHT22;13311;51.386;0.016;2022-10-16T04:09:31;14.80;93.30
25360;DHT22;13311;51.386;0.016;2022-10-16T04:14:32;14.80;93.40
25360;DHT22;13311;51.386;0.016;2022-10-16T04:19:33;14.70;93.50
25360;DHT22;13311;51.386;0.016;2022-10-16T04:24:33;14.70;93.80
25360;DHT22;13311;51.386;0.016;2022-10-16T04:29:34;14.70;93.80
25360;DHT22;13311;51.386;0.016;2022-10-16T04:34:35;14.70;93.80
25360;DHT22;13311;51.386;0.016;2022-10-16T04:39:35;14.60;94.10
25360;DHT22;13311;51.386;0.016;2022-10-16T04:44:36;14.60;94.00
25360;DHT22;13311;51.386;0.016;2022-10-16T04:49:37;14.60;94.20
25360;DHT22;13311;51.386;0.016;2022-10-16T04:54:38;14.50;94.40
25360;DHT22;13311;51.386;0.016;2022-10-16T04:59:38;14.50;94.40
25360;DHT22;13311;51.386;0.016;2022-10-16T05:04:39;14.50;94.50
25360;DHT22;13311;51.386;0.016;2022-10-16T05:09:40;14.60;94.20
25360;DHT22;13311;51.386;0.016;2022-10-16T05:14:40;14.50;94.20
25360;DHT22;13311;51.386;0.016;2022-10-16T05:19:41;14.40;94.30
25360;DHT22;13311;51.386;0.016;2022-10-16T05:24:42;14.40;94.30
25360;DHT22;13311;51.386;0.016;2022-10-16T05:29:43;14.40;94.00
25360;DHT22;13311;51.386;0.016;2022-10-16T05:34:45;14.40;93.90
25360;DHT22;13311;51.386;0.016;2022-10-16T05:39:46;14.30;93.80
25360;DHT22;13311;51.386;0.016;2022-10-16T05:44:47;14.30;93.80
25360;DHT22;13311;51.386;0.016;2022-10-16T05:49:48;14.20;93.70
25360;DHT22;13311;51.386;0.016;2022-10-16T05:54:48;14.20;93.70
25360;DHT22;13311;51.386;0.016;2022-10-16T05:59:50;14.10;93.90
25360;DHT22;13311;51.386;0.016;2022-10-16T06:04:53;14.10;93.90
25360;DHT22;13311;51.386;0.016;2022-10-16T06:09:54;14.10;93.70
25360;DHT22;13311;51.386;0.016;2022-10-16T06:14:55;14.20;93.50
25360;DHT22;13311;51.386;0.016;2022-10-16T06:19:55;14.20;93.30
25360;DHT22;13311;51.386;0.016;2022-10-16T06:24:56;14.20;93.30
25360;DHT22;13311;51.386;0.016;2022-10-16T06:29:57;14.10;93.40
25360;DHT22;13311;51.386;0.016;2022-10-16T06:34:57;14.00;93.50
25360;DHT22;13311;51.386;0.016;2022-10-16T06:39:58;14.00;93.60
25360;DHT22;13311;51.386;0.016;2022-10-16T06:45:00;13.90;93.70
25360;DHT22;13311;51.386;0.016;2022-10-16T06:50:02;13.90;93.80
25360;DHT22;13311;51.386;0.016;2022-10-16T06:55:04;13.90;93.80
25360;DHT22;13311;51.386;0.016;2022-10-16T07:00:06;14.00;93.60
25360;DHT22;13311;51.386;0.016;2022-10-16T07:05:07;13.90;93.80
25360;DHT22;13311;51.386;0.016;2022-10-16T07:10:08;13.80;94.00
25360;DHT22;13311;51.386;0.016;2022-10-16T07:15:09;13.80;94.10
25360;DHT22;13311;51.386;0.016;2022-10-16T07:20:10;13.90;94.00
25360;DHT22;13311;51.386;0.016;2022-10-16T07:25:11;14.00;93.90
25360;DHT22;13311;51.386;0.016;2022-10-16T07:30:11;14.10;94.00
25360;DHT22;13311;51.386;0.016;2022-10-16T07:35:12;14.10;94.10
25360;DHT22;13311;51.386;0.016;2022-10-16T07:40:13;14.20;94.00
25360;DHT22;13311;51.386;0.016;2022-10-16T07:45:14;14.20;94.30
25360;DHT22;13311;51.386;0.016;2022-10-16T07:50:15;14.30;94.50
25360;DHT22;13311;51.386;0.016;2022-10-16T07:55:16;14.30;94.40
25360;DHT22;13311;51.386;0.016;2022-10-16T08:00:17;14.40;94.40
25360;DHT22;13311;51.386;0.016;2022-10-16T08:05:17;14.50;94.60
25360;DHT22;13311;51.386;0.016;2022-10-16T08:10:21;14.60;94.30
25360;DHT22;13311;51.386;0.016;2022-10-16T08:15:23;14.80;94.50
25360;DHT22;13311;51.386;0.016;2022-10-16T08:20:25;15.00;94.50
25360;DHT22;13311;51.386;0.016;2022-10-16T08:25:26;15.30;94.10
25360;DHT22;13311;51.386;0.016;2022-10-16T08:30:27;15.60;93.90
25360;DHT22;13311;51.386;0.016;2022-10-16T08:35:28;15.80;93.10
25360;DHT22;13311;51.386;0.016;2022-10-16T08:40:30;15.90;92.40
25360;DHT22;13311;51.386;0.016;2022-10-16T08:50:44;16.40;92.50
25360;DHT22;13311;51.386;0.016;2022-10-16T08:55:53;17.00;91.90
25360;DHT22;13311;51.386;0.016;2022-10-16T09:01:03;17.40;90.80
25360;DHT22;13311;51.386;0.016;2022-10-16T09:06:14;17.80;90.10
25360;DHT22;13311;51.386;0.016;2022-10-16T09:11:53;18.10;87.70
25360;DHT22;13311;51.386;0.016;2022-10-16T09:22:44;18.80;86.80
25360;DHT22;13311;51.386;0.016;2022-10-16T09:27:48;19.10;84.00
25360;DHT22;13311;51.386;0.016;2022-10-16T09:32:51;19.20;83.90
25360;DHT22;13311;51.386;0.016;2022-10-16T09:37:54;19.50;83.10
25360;DHT22;13311;51.386;0.016;2022-10-16T09:48:28;20.00;82.00
25360;DHT22;13311;51.386;0.016;2022-10-16T09:53:56;20.30;81.20
25360;DHT22;13311;51.386;0.016;2022-10-16T09:59:00;20.40;78.70
25360;DHT22;13311;51.386;0.016;2022-10-16T10:04:02;20.40;79.20
25360;DHT22;13311;51.386;0.016;2022-10-16T10:09:06;20.20;78.70
25360;DHT22;13311;51.386;0.016;2022-10-16T10:19:24;20.00;79.30
25360;DHT22;13311;51.386;0.016;2022-10-16T10:24:24;20.10;79.70
25360;DHT22;13311;51.386;0.016;2022-10-16T10:29:30;20.40;80.20
25360;DHT22;13311;51.386;0.016;2022-10-16T10:40:51;20.80;80.00
25360;DHT22;13311;51.386;0.016;2022-10-16T10:46:28;21.10;79.30
25360;DHT22;13311;51.386;0.016;2022-10-16T10:57:23;21.40;74.50
25360;DHT22;13311;51.386;0.016;2022-10-16T11:02:41;21.60;72.80
25360;DHT22;13311;51.386;0.016;2022-10-16T11:07:54;21.90;73.50
25360;DHT22;13311;51.386;0.016;2022-10-16T11:13:19;22.10;76.50
25360;DHT22;13311;51.386;0.016;2022-10-16T11:18:40;22.10;72.90
25360;DHT22;13311;51.386;0.016;2022-10-16T11:23:53;22.20;73.40
25360;DHT22;13311;51.386;0.016;2022-10-16T11:28:57;22.30;71.30
25360;DHT22;13311;51.386;0.016;2022-10-16T11:34:01;22.00;69.30
25360;DHT22;13311;51.386;0.016;2022-10-16T11:39:20;21.60;72.50
25360;DHT22;13311;51.386;0.016;2022-10-16T11:49:46;21.80;73.30
25360;DHT22;13311;51.386;0.016;2022-10-16T11:54:56;21.80;73.60
25360;DHT22;13311;51.386;0.016;2022-10-16T12:00:08;21.60;72.00
25360;DHT22;13311;51.386;0.016;2022-10-16T12:10:31;21.90;71.70
25360;DHT22;13311;51.386;0.016;2022-10-16T12:15:37;21.50;71.90
25360;DHT22;13311;51.386;0.016;2022-10-16T12:20:38;21.40;73.00
25360;DHT22;13311;51.386;0.016;2022-10-16T12:25:57;21.20;75.30
25360;DHT22;13311;51.386;0.016;2022-10-16T12:31:04;21.10;75.40
25360;DHT22;13311;51.386;0.016;2022-10-16T12:36:16;20.90;76.20
25360;DHT22;13311;51.386;0.016;2022-10-16T12:41:33;20.90;77.60
25360;DHT22;13311;51.386;0.016;2022-10-16T12:46:38;20.60;77.70
25360;DHT22;13311;51.386;0.016;2022-10-16T12:51:41;20.50;78.00
25360;DHT22;13311;51.386;0.016;2022-10-16T12:57:24;20.40;78.50
25360;DHT22;13311;51.386;0.016;2022-10-16T13:25:13;20.00;82.80
25360;DHT22;13311;51.386;0.016;2022-10-16T13:30:27;20.10;82.30
25360;DHT22;13311;51.386;0.016;2022-10-16T13:35:32;19.90;83.70
25360;DHT22;13311;51.386;0.016;2022-10-16T13:40:34;19.90;83.30
25360;DHT22;13311;51.386;0.016;2022-10-16T13:45:35;19.70;83.70
25360;DHT22;13311;51.386;0.016;2022-10-16T13:50:35;19.60;84.20
25360;DHT22;13311;51.386;0.016;2022-10-16T13:55:36;19.40;84.90
25360;DHT22;13311;51.386;0.016;2022-10-16T14:00:37;19.30;85.60
25360;DHT22;13311;51.386;0.016;2022-10-16T14:05:47;19.20;86.90
25360;DHT22;13311;51.386;0.016;2022-10-16T14:10:52;19.30;87.00
25360;DHT22;13311;51.386;0.016;2022-10-16T14:15:54;19.30;86.80
25360;DHT22;13311;51.386;0.016;2022-10-16T14:21:06;19.30;87.40
25360;DHT22;13311;51.386;0.016;2022-10-16T14:31:28;19.40;86.80
25360;DHT22;13311;51.386;0.016;2022-10-16T14:36:31;19.40;87.10
25360;DHT22;13311;51.386;0.016;2022-10-16T14:41:33;19.40;87.30
25360;DHT22;13311;51.386;0.016;2022-10-16T14:46:42;19.30;87.10
25360;DHT22;13311;51.386;0.016;2022-10-16T14:51:44;19.20;88.20
25360;DHT22;13311;51.386;0.016;2022-10-16T14:56:52;19.10;88.80
25360;DHT22;13311;51.386;0.016;2022-10-16T15:01:54;19.10;89.40
25360;DHT22;13311;51.386;0.016;2022-10-16T15:06:54;19.20;89.40
25360;DHT22;13311;51.386;0.016;2022-10-16T15:11:55;19.10;89.60
25360;DHT22;13311;51.386;0.016;2022-10-16T15:16:56;19.10;89.90
25360;DHT22;13311;51.386;0.016;2022-10-16T15:21:57;19.00;90.20
25360;DHT22;13311;51.386;0.016;2022-10-16T15:26:58;19.00;90.40
25360;DHT22;13311;51.386;0.016;2022-10-16T15:31:58;18.90;90.60
25360;DHT22;13311;51.386;0.016;2022-10-16T15:37:03;18.80;90.80
25360;DHT22;13311;51.386;0.016;2022-10-16T15:42:04;18.60;91.20
25360;DHT22;13311;51.386;0.016;2022-10-16T15:47:06;18.60;91.40
25360;DHT22;13311;51.386;0.016;2022-10-16T15:52:07;18.50;92.00
25360;DHT22;13311;51.386;0.016;2022-10-16T15:57:08;18.50;91.80
25360;DHT22;13311;51.386;0.016;2022-10-16T16:02:09;18.40;92.10
25360;DHT22;13311;51.386;0.016;2022-10-16T16:07:10;18.30;92.30
25360;DHT22;13311;51.386;0.016;2022-10-16T16:12:11;18.30;92.50
25360;DHT22;13311;51.386;0.016;2022-10-16T16:17:11;18.30;92.50
25360;DHT22;13311;51.386;0.016;2022-10-16T16:22:12;18.30;92.60
25360;DHT22;13311;51.386;0.016;2022-10-16T16:27:13;18.30;92.70
25360;DHT22;13311;51.386;0.016;2022-10-16T16:32:14;18.20;93.10
25360;DHT22;13311;51.386;0.016;2022-10-16T16:37:14;18.10;93.40
25360;DHT22;13311;51.386;0.016;2022-10-16T16:42:15;18.00;93.60
25360;DHT22;13311;51.386;0.016;2022-10-16T16:47:16;17.80;94.20
25360;DHT22;13311;51.386;0.016;2022-10-16T16:52:17;17.60;94.80
25360;DHT22;13311;51.386;0.016;2022-10-16T16:57:19;17.50;95.00
25360;DHT22;13311;51.386;0.016;2022-10-16T17:02:20;17.60;94.90
25360;DHT22;13311;51.386;0.016;2022-10-16T17:07:21;17.50;95.10
25360;DHT22;13311;51.386;0.016;2022-10-16T17:12:22;17.50;95.30
25360;DHT22;13311;51.386;0.016;2022-10-16T17:17:22;17.40;95.50
25360;DHT22;13311;51.386;0.016;2022-10-16T17:22:23;17.50;95.40
25360;DHT22;13311;51.386;0.016;2022-10-16T17:27:24;17.60;96.00
25360;DHT22;13311;51.386;0.016;2022-10-16T17:32:25;17.50;96.10
25360;DHT22;13311;51.386;0.016;2022-10-16T17:37:26;17.30;96.80
25360;DHT22;13311;51.386;0.016;2022-10-16T17:42:27;17.20;97.20
25360;DHT22;13311;51.386;0.016;2022-10-16T17:47:28;17.20;97.20
25360;DHT22;13311;51.386;0.016;2022-10-16T17:52:29;17.20;97.30
25360;DHT22;13311;51.386;0.016;2022-10-16T17:57:30;17.10;97.70
25360;DHT22;13311;51.386;0.016;2022-10-16T18:02:31;17.10;97.90
25360;DHT22;13311;51.386;0.016;2022-10-16T18:07:53;17.00;98.00
25360;DHT22;13311;51.386;0.016;2022-10-16T18:12:54;17.00;98.40
25360;DHT22;13311;51.386;0.016;2022-10-16T18:17:56;16.90;98.80
25360;DHT22;13311;51.386;0.016;2022-10-16T18:22:56;17.00;99.00
25360;DHT22;13311;51.386;0.016;2022-10-16T18:27:57;16.80;99.20
25360;DHT22;13311;51.386;0.016;2022-10-16T18:32:58;16.90;99.20
25360;DHT22;13311;51.386;0.016;2022-10-16T18:37:59;16.90;99.50
25360;DHT22;13311;51.386;0.016;2022-10-16T18:43:02;16.80;99.70
25360;DHT22;13311;51.386;0.016;2022-10-16T18:48:04;16.90;99.60
25360;DHT22;13311;51.386;0.016;2022-10-16T18:53:05;17.00;99.50
25360;DHT22;13311;51.386;0.016;2022-10-16T18:58:06;17.00;99.50
25360;DHT22;13311;51.386;0.016;2022-10-16T19:03:07;17.00;99.60
25360;DHT22;13311;51.386;0.016;2022-10-16T19:08:07;16.90;99.90
25360;DHT22;13311;51.386;0.016;2022-10-16T19:13:08;16.90;99.90
25360;DHT22;13311;51.386;0.016;2022-10-16T19:18:09;16.90;99.90
25360;DHT22;13311;51.386;0.016;2022-10-16T19:23:10;16.80;99.90
25360;DHT22;13311;51.386;0.016;2022-10-16T19:28:11;16.70;99.90
25360;DHT22;13311;51.386;0.016;2022-10-16T19:33:12;16.70;99.90
25360;DHT22;13311;51.386;0.016;2022-10-16T19:38:13;16.70;99.90
25360;DHT22;13311;51.386;0.016;2022-10-16T19:43:13;16.70;99.90
25360;DHT22;13311;51.386;0.016;2022-10-16T19:48:14;16.70;99.90
25360;DHT22;13311;51.386;0.016;2022-10-16T19:53:15;16.70;99.90
25360;DHT22;13311;51.386;0.016;2022-10-16T19:58:15;16.70;99.90
25360;DHT22;13311;51.386;0.016;2022-10-16T20:03:17;16.80;99.90
25360;DHT22;13311;51.386;0.016;2022-10-16T20:08:18;16.90;99.90
25360;DHT22;13311;51.386;0.016;2022-10-16T20:13:20;17.00;99.90
25360;DHT22;13311;51.386;0.016;2022-10-16T20:18:21;17.10;99.90
25360;DHT22;13311;51.386;0.016;2022-10-16T20:23:22;17.10;99.90
25360;DHT22;13311;51.386;0.016;2022-10-16T20:28:23;17.10;99.90
25360;DHT22;13311;51.386;0.016;2022-10-16T20:33:24;17.10;99.90
25360;DHT22;13311;51.386;0.016;2022-10-16T20:38:25;17.20;99.90
25360;DHT22;13311;51.386;0.016;2022-10-16T20:43:26;17.30;99.90
25360;DHT22;13311;51.386;0.016;2022-10-16T20:48:27;17.30;99.90
25360;DHT22;13311;51.386;0.016;2022-10-16T20:53:27;17.40;99.90
25360;DHT22;13311;51.386;0.016;2022-10-16T20:58:28;17.50;99.90
25360;DHT22;13311;51.386;0.016;2022-10-16T21:03:29;17.50;99.90
25360;DHT22;13311;51.386;0.016;2022-10-16T21:08:30;17.40;99.90
25360;DHT22;13311;51.386;0.016;2022-10-16T21:13:34;17.50;99.90
25360;DHT22;13311;51.386;0.016;2022-10-16T21:18:35;17.50;99.90
25360;DHT22;13311;51.386;0.016;2022-10-16T21:23:36;17.50;99.90
25360;DHT22;13311;51.386;0.016;2022-10-16T21:28:37;17.50;99.90
25360;DHT22;13311;51.386;0.016;2022-10-16T21:33:38;17.40;99.90
25360;DHT22;13311;51.386;0.016;2022-10-16T21:38:39;17.40;99.90
25360;DHT22;13311;51.386;0.016;2022-10-16T21:43:39;17.50;99.90
25360;DHT22;13311;51.386;0.016;2022-10-16T21:48:40;17.60;99.90
25360;DHT22;13311;51.386;0.016;2022-10-16T21:53:44;17.70;99.90
25360;DHT22;13311;51.386;0.016;2022-10-16T21:58:45;17.80;99.90
25360;DHT22;13311;51.386;0.016;2022-10-16T22:03:46;17.80;99.90
25360;DHT22;13311;51.386;0.016;2022-10-16T22:08:48;18.00;99.90
25360;DHT22;13311;51.386;0.016;2022-10-16T22:13:51;18.30;99.90
25360;DHT22;13311;51.386;0.016;2022-10-16T22:18:53;18.40;99.90
25360;DHT22;13311;51.386;0.016;2022-10-16T22:23:55;18.30;99.90
25360;DHT22;13311;51.386;0.016;2022-10-16T22:28:55;18.40;99.90
25360;DHT22;13311;51.386;0.016;2022-10-16T22:33:58;18.40;99.90
25360;DHT22;13311;51.386;0.016;2022-10-16T22:39:01;18.40;99.90
25360;DHT22;13311;51.386;0.016;2022-10-16T22:44:01;18.40;99.90
25360;DHT22;13311;51.386;0.016;2022-10-16T22:49:02;18.30;99.90
25360;DHT22;13311;51.386;0.016;2022-10-16T22:54:03;18.30;99.90
25360;DHT22;13311;51.386;0.016;2022-10-16T22:59:04;18.40;99.90
25360;DHT22;13311;51.386;0.016;2022-10-16T23:04:05;18.40;99.90
25360;DHT22;13311;51.386;0.016;2022-10-16T23:09:06;18.50;99.90
25360;DHT22;13311;51.386;0.016;2022-10-16T23:14:07;18.50;99.90
25360;DHT22;13311;51.386;0.016;2022-10-16T23:19:07;18.60;99.90
25360;DHT22;13311;51.386;0.016;2022-10-16T23:24:08;18.60;99.90
25360;DHT22;13311;51.386;0.016;2022-10-16T23:29:09;18.60;99.90
25360;DHT22;13311;51.386;0.016;2022-10-16T23:34:10;18.50;99.90
25360;DHT22;13311;51.386;0.016;2022-10-16T23:39:10;18.60;99.90
25360;DHT22;13311;51.386;0.016;2022-10-16T23:44:11;18.60;99.90
25360;DHT22;13311;51.386;0.016;2022-10-16T23:49:12;18.80;99.90
25360;DHT22;13311;51.386;0.016;2022-10-16T23:54:12;18.80;99.90
25360;DHT22;13311;51.386;0.016;2022-10-16T23:59:13;18.90;99.90
